METAR v bližini

 

LIPQ - Ronchi Legionari, Italy
Oddaljenost od postaje: JZ 35km
Podatki zajeti: 19/06/2018 23:50
Pretežno oblačno
Pretežno oblačno
 Veter iz smeri spremenljiv
Veter: spremenljiv 4 km/h
Temperatura: 23°C
Temp. rosišča: 15°C
Vlažnost: 61%
Tlak: 1020 hPa
Oblačnost: Pretežno oblačno
Vidljivost: 10 km
Podrobnosti o oblakih: Pretežno oblačno 2743 m
2018/06/19 21:50 LIPQ 192150Z VRB02KT 9999 BKN090 23/15 Q1020
LIVT - Trieste, Italy
Oddaljenost od postaje: J 49km
Podatki zajeti: 19/06/2018 22:55
Jasno
Jasno
 Veter iz smeri SV
Veter: SV 2 km/h
Temperatura: 25°C
Temp. rosišča: 14°C
Vlažnost: 51%
Tlak: 1019 hPa
Stanje: Jasno
Vidljivost: večja od 10 km
2018/06/19 20:55 LIVT 192055Z 05001KT CAVOK 25/14 Q1019 RMK FEW FEW090 QUK / QUL / VIS MAR 20 KM VIS MIN 9999
 
LIVO - Tarvisio, Italy
Oddaljenost od postaje: SSZ 49km
Podatki zajeti: 19/06/2018 19:55
Ni posodobljen
Rahlo oblačno
Rahlo oblačno
 Veter iz smeri SV
Veter: SV 4 km/h
Temperatura: 23°C
Temp. rosišča: 12°C
Vlažnost: 50%
Tlak: 1021 hPa
Oblačnost: Rahlo oblačno
Vidljivost: 10 km
Podrobnosti o oblakih: Rahlo oblačno 1067 m
2018/06/19 17:55 LIVO 191755Z 05002KT 9999 FEW035 23/12 Q1021 RMK SCT VIS MIN 9999
LIPI - Rivolto (it-Afb), Italy
Oddaljenost od postaje: ZJZ 57km
Podatki zajeti: 19/06/2018 15:55
Ni posodobljen
Rahlo oblačno
Rahlo oblačno
 Veter iz smeri spremenljiv
Veter: spremenljiv 0 km/h
Temperatura: 30°C
Temp. rosišča: 14°C
Vlažnost: 38%
Tlak: 1018 hPa
Oblačnost: Rahlo oblačno
Vidljivost: 10 km
Podrobnosti o oblakih: Rahlo oblačno 1524 m
2018/06/19 13:55 LIPI 191355Z /////KT 9999 FEW050 30/14 Q1018 RMK FEW VIS MIN 9999 WIND THR06 21004KT WIND THR24 /////KT BLU
 
LJLJ - Ljubljana/Brnik, Slovenia
Oddaljenost od postaje: VSV 59km
Podatki zajeti: 20/06/2018 00:00
Rahlo oblačno
Rahlo oblačno
 Veter iz smeri spremenljiv
Veter: spremenljiv 4 km/h
Temperatura: 17°C
Temp. rosišča: 13°C
Vlažnost: 77%
Tlak: 1023 hPa
Oblačnost: Rahlo oblačno
Vidljivost: 10 km
Podrobnosti o oblakih: Rahlo oblačno 2438 m
2018/06/19 22:00 LJLJ 192200Z VRB02KT 9999 FEW080 17/13 Q1023 NOSIG
LJPZ - Portoroz, Slovenia
Oddaljenost od postaje: J 68km
Podatki zajeti: 20/06/2018 00:00
Jasno
Jasno
 Veter iz smeri VJV
Veter: VJV 11 km/h
Temperatura: 20°C
Temp. rosišča: 14°C
Vlažnost: 69%
Tlak: 1020 hPa
Oblačnost: Jasno
Vidljivost: 10 km
2018/06/19 22:00 LJPZ 192200Z AUTO 11006KT 9999 NCD 20/14 Q1020
 
LOWK - Klagenfurt(Civ/M, Austria
Oddaljenost od postaje: SV 78km
Podatki zajeti: 19/06/2018 23:50
Pretežno oblačno
Pretežno oblačno
 Veter iz smeri spremenljiv
Veter: spremenljiv 2 km/h
Temperatura: 21°C
Temp. rosišča: 11°C
Vlažnost: 53%
Tlak: 1023 hPa
Oblačnost: Pretežno oblačno
Vidljivost: 10 km
Podrobnosti o oblakih: Pretežno oblačno 2438 m
2018/06/19 21:50 LOWK 192150Z AUTO VRB01KT 9999 BKN080 21/11 Q1023
LIYW - Aviano (usaf), Italy
Oddaljenost od postaje: Z 86km
Podatki zajeti: 20/10/2015 15:58
Ni posodobljen
Jasno
Jasno
 Veter iz smeri JJZ
Veter: JJZ 6 km/h
Temperatura: 17°C
Temp. rosišča: 3°C
Vlažnost: 39%
Tlak: 1016.3 hPa
Oblačnost: Jasno
Vidljivost: 10 km
2015/10/20 13:58 LIYW 201358Z AUTO 21003KT 9999 CLR 17/03 A3001 RMK AO2 SLP167 T01660029
 
LIPA - Aviano (it/Us-Af, Italy
Oddaljenost od postaje: Z 89km
Podatki zajeti: 19/06/2018 22:55
Rahlo oblačno
Rahlo oblačno
 Veter iz smeri SSV
Veter: SSV 11 km/h
Temperatura: 23°C
Temp. rosišča: 18°C
Vlažnost: 74%
Tlak: 1019 hPa
Oblačnost: Rahlo oblačno
Vidljivost: 10 km
Podrobnosti o oblakih: Rahlo oblačno 2743 m
2018/06/19 20:55 LIPA 192055Z 02006KT 9999 FEW090 23/18 Q1019 RMK FEW VIS MIN 9999 WIND THR05 /////KT WIND THR23 /////KT A3010 BLU
LDRI - Rijeka/Omisalj, Croatia
Oddaljenost od postaje: JV 115km
Podatki zajeti: 20/06/2018 00:00
Jasno
Jasno
 Veter iz smeri spremenljiv
Veter: spremenljiv 6 km/h
Temperatura: 26°C
Temp. rosišča: 12°C
Vlažnost: 42%
Tlak: 1020 hPa
Stanje: Jasno
Vidljivost: večja od 10 km
2018/06/19 22:00 LDRI 192200Z VRB03KT CAVOK 26/12 Q1020
 
LIPZ - Venezia/Tessera, Italy
Oddaljenost od postaje: ZJZ 127km
Podatki zajeti: 19/06/2018 23:50
Jasno
Jasno
 Veter iz smeri spremenljiv
Veter: spremenljiv 2 km/h
Temperatura: 26°C
Temp. rosišča: 14°C
Vlažnost: 48%
Tlak: 1019 hPa
Stanje: Jasno
Vidljivost: večja od 10 km
2018/06/19 21:50 LIPZ 192150Z VRB01KT CAVOK 26/14 Q1019 NOSIG
LDPL - Pula, Croatia
Oddaljenost od postaje: J 133km
Podatki zajeti: 20/06/2018 00:00
Jasno
Jasno
 Veter iz smeri spremenljiv
Veter: spremenljiv 2 km/h
Temperatura: 20°C
Temp. rosišča: 15°C
Vlažnost: 73%
Tlak: 1020 hPa
Stanje: Jasno
Vidljivost: večja od 10 km
2018/06/19 22:00 LDPL 192200Z VRB01KT CAVOK 20/15 Q1020
 
LIPS - Istrana (it-Afb), Italy
Oddaljenost od postaje: ZJZ 136km
Podatki zajeti: 19/06/2018 22:55
Delno oblačno
Delno oblačno
 Veter iz smeri calm
Veter: Tišina
Temperatura: 26°C
Temp. rosišča: 18°C
Vlažnost: 61%
Tlak: 1019 hPa
Oblačnost: Delno oblačno
Vidljivost: 10 km
Podrobnosti o oblakih: Delno oblačno 3048 m
2018/06/19 20:55 LIPS 192055Z 00000KT 9999 SCT100 26/18 Q1019 RMK SCT VIS MIN 9999 WIND THR26 00000KT WIND THR08 00000KT BLU
LIVD - Dobbiaco, Italy
Oddaljenost od postaje: ZSZ 137km
Podatki zajeti: 19/06/2018 19:55
Ni posodobljen

 
2018/06/19 17:55 LIVD 191755Z ///02KT 9999 FEW035 23/07 Q1024 RMK FEW VIS MIN 9999
 
LJCE - Cerklje, Slovenia
Oddaljenost od postaje: V 139km
Podatki zajeti: 20/06/2018 00:00
Delno oblačno
Delno oblačno
 Veter iz smeri calm
Veter: Tišina
Temperatura: 18°C
Temp. rosišča: 15°C
Vlažnost: 83%
Tlak: 1022 hPa
Oblačnost: Delno oblačno
Vidljivost: 10 km
2018/06/19 22:00 LJCE 192200Z AUTO 00000KT 9999 NSC 18/15 Q1022
LOXZ - Zeltweg (mil), Austria
Oddaljenost od postaje: SSV 147km
Podatki zajeti: 19/06/2018 22:50
Ni posodobljen
Rahlo oblačno
Rahlo oblačno
 Veter iz smeri Z
Veter: Z 4 km/h
Temperatura: 19°C
Temp. rosišča: 11°C
Vlažnost: 60%
Tlak: 1025 hPa
Oblačnost: Rahlo oblačno
Podrobnosti o oblakih: Rahlo oblačno 1676 m
2018/06/19 20:50 LOXZ 192050Z 27002KT 30KM FEW055SC 19/11 Q1025